ADDS METAR Data INFO
IDs: Format: Raw Decoded Include TAF

Data at: 0208 UTC 14 Dec 2017

KEIK 140154Z AUTO 08005KT 10SM OVC110 07/M12 A3011 RMK AO2 T00681120
KEIK 140130Z AUTO 08007KT 10SM OVC110 07/M12 A3011 RMK AO2 T00741125
KEIK 140112Z AUTO 09009KT 10SM OVC110 08/M12 A3010 RMK AO2 T00781125
KEIK 140054Z AUTO 08008KT 10SM OVC100 08/M13 A3009 RMK AO2 T00791127
KEIK 140030Z AUTO 12004KT 10SM OVC100 08/M13 A3007 RMK AO2 T00771126
KEIK 140012Z AUTO 11005KT 10SM OVC100 08/M12 A3008 RMK AO2 T00781123
KEIK 132354Z AUTO 00000KT 10SM OVC110 09/M13 A3007 RMK AO2 T00861131
KEIK 132330Z AUTO 00000KT 10SM OVC110 09/M14 A3007 RMK AO2 T00921137
KEIK 132312Z AUTO 14003KT 10SM OVC110 10/M14 A3007 RMK AO2 T00961139
KEIK 132254Z AUTO 10004KT 10SM BKN110 10/M14 A3007 RMK AO2 T01011143
KEIK 132230Z AUTO 11005KT 10SM BKN120 11/M15 A3007 RMK AO2 T01111152
KEIK 132212Z AUTO 06003KT 10SM OVC110 11/M15 A3007 RMK AO2 T01121154
KEIK 132153Z AUTO 08005KT 10SM OVC110 11/M16 A3007 RMK AO2 T01101156
KEIK 132135Z AUTO 12004KT 10SM OVC110 12/M15 A3007 RMK AO2 T01181152
KEIK 132112Z AUTO 11005KT 10SM SCT110 12/M15 A3007 RMK AO2 T01151152
KEIK 132054Z AUTO 17005KT 10SM CLR 12/M15 A3008 RMK AO2 T01151154
KEIK 132030Z AUTO 17006KT 10SM CLR 12/M15 A3008 RMK AO2 T01161153
KEIK 132012Z AUTO 12006KT 10SM CLR 11/M15 A3009 RMK AO2 T01141155
KEIK 131953Z AUTO 15007KT 10SM CLR 11/M16 A3011 RMK AO2 T01121157
KEIK 131935Z AUTO 14005KT 10SM CLR 11/M16 A3012 RMK AO2 T01111160
KEIK 131911Z AUTO 13008KT 10SM CLR 11/M15 A3014 RMK AO2 T01091153
KEIK 131842Z AUTO 10SM SCT110 RMK AO2 PWINO
KEIK 131829Z AUTO 15009KT 10SM SCT110 11/M15 A3017 RMK AO2 T01081155
KEIK 131811Z AUTO 17008KT 10SM CLR 11/M16 A3018 RMK AO2 T01061156
KEIK 131753Z AUTO 16008KT 10SM CLR 10/M16 A3019 RMK AO2 T01031158 PWINO
KEIK 131735Z AUTO 15010KT 10SM SCT110 10/M16 A3020 RMK AO2 T00981157
KEIK 131641Z AUTO 18009KT 10SM OVC110 08/M15 A3022 RMK AO2 T00761147
KEIK 131617Z AUTO 18011KT 10SM OVC110 07/M14 A3022 RMK AO2 T00701144
KEIK 131600Z AUTO 18007KT 10SM OVC110 07/M14 A3022 RMK AO2 T00651142
KEIK 131542Z AUTO 17006KT 10SM OVC110 06/M14 A3022 RMK AO2 T00581142
KEIK 131518Z AUTO 18004KT 10SM BKN120 05/M14 A3022 RMK AO2 T00481140
KEIK 131500Z AUTO 19006KT 10SM BKN120 05/M14 A3021 RMK AO2 T00501142
KEIK 131442Z AUTO 19005KT 10SM BKN120 05/M14 A3022 RMK AO2 T00471144
KEIK 131418Z AUTO 21006KT 10SM BKN110 04/M14 A3022 RMK AO2 T00421139
KEIK 131400Z AUTO 00000KT 10SM OVC110 05/M14 A3020 RMK AO2 T00461143
KEIK 131342Z AUTO 00000KT 10SM BKN120 05/M15 A3019 RMK AO2 T00491150
KEIK 131318Z AUTO 14006KT 10SM OVC120 05/M14 A3018 RMK AO2 T00541145
KEIK 131300Z AUTO 12006KT 10SM BKN120 06/M14 A3018 RMK AO2 T00591144
KEIK 131242Z AUTO 10009KT 10SM CLR 07/M15 A3016 RMK AO2 T00711152
KEIK 131218Z AUTO 03003KT 10SM CLR 03/M13 A3016 RMK AO2 T00311134
KEIK 131200Z AUTO 00000KT 10SM CLR 04/M15 A3015 RMK AO2 T00401146
KEIK 131142Z AUTO 00000KT 10SM CLR 05/M16 A3013 RMK AO2 T00511156
KEIK 131118Z AUTO 01004KT 10SM CLR 05/M15 A3012 RMK AO2 T00471154
KEIK 131100Z AUTO 01005KT 10SM CLR 09/M17 A3012 RMK AO2 T00921173
KEIK 131042Z AUTO 30009G18KT 10SM CLR 06/M16 A3010 RMK AO2 T00601163
KEIK 131018Z AUTO 15003KT 10SM CLR 02/M14 A3010 RMK AO2 T00231140
KEIK 131000Z AUTO 00000KT 10SM CLR 03/M15 A3009 RMK AO2 T00331149
KEIK 130942Z AUTO 00000KT 10SM CLR 03/M15 A3009 RMK AO2 T00311148
KEIK 130918Z AUTO 00000KT 10SM CLR 06/M17 A3009 RMK AO2 T00551166
KEIK 130900Z AUTO 00000KT 10SM CLR 09/M18 A3009 RMK AO2 T00861178
KEIK 130842Z AUTO 27005KT 10SM CLR 05/M16 A3009 RMK AO2 T00471159
KEIK 130818Z AUTO 26005KT 10SM CLR 05/M16 A3009 RMK AO2 T00531160
KEIK 130800Z AUTO 27004KT 10SM CLR 08/M17 A3009 RMK AO2 T00781167
KEIK 130742Z AUTO 28006KT 10SM CLR 07/M16 A3009 RMK AO2 T00671160
KEIK 130718Z AUTO 28006KT 10SM CLR 06/M16 A3010 RMK AO2 T00611161
KEIK 130700Z AUTO 27008KT 10SM CLR 04/M15 A3011 RMK AO2 T00391155
KEIK 130641Z AUTO 27003KT 10SM CLR 06/M15 A3012 RMK AO2 T00591155
KEIK 130618Z AUTO 00000KT 10SM CLR 10/M17 A3012 RMK AO2 T01041167
KEIK 130600Z AUTO 00000KT 10SM CLR 11/M16 A3013 RMK AO2 T01121165
KEIK 130542Z AUTO 28009G14KT 10SM CLR 12/M16 A3013 RMK AO2 T01191162
KEIK 130518Z AUTO 26006KT 10SM CLR 11/M16 A3013 RMK AO2 T01111157
KEIK 130500Z AUTO 25009KT 10SM CLR 09/M15 A3013 RMK AO2 T00941153
KEIK 130441Z AUTO 25005KT 10SM CLR 08/M15 A3015 RMK AO2 T00831147
KEIK 130418Z AUTO 26009KT 10SM CLR 11/M15 A3015 RMK AO2 T01111153
KEIK 130400Z AUTO 26009KT 10SM CLR 12/M15 A3016 RMK AO2 T01161152
KEIK 130340Z AUTO 26008KT 10SM CLR 07/M13 A3016 RMK AO2 T00661131
KEIK 130318Z AUTO 00000KT 10SM CLR 05/M12 A3018 RMK AO2 T00451122
KEIK 130300Z AUTO 00000KT 10SM CLR 06/M13 A3018 RMK AO2 T00611126
KEIK 130241Z AUTO 29003KT 10SM CLR 10/M14 A3019 RMK AO2 T00961141
KEIK 130217Z AUTO 28011KT 10SM CLR 10/M14 A3020 RMK AO2 T01031139
KEIK 130200Z AUTO 27006KT 10SM CLR 05/M12 A3021 RMK AO2 T00521117
KEIK 130142Z AUTO 23003KT 10SM CLR 06/M11 A3021 RMK AO2 T00641113
KEIK 130118Z AUTO 24003KT 10SM CLR 07/M11 A3021 RMK AO2 T00661109
KEIK 130100Z AUTO 00000KT 10SM CLR 07/M11 A3021 RMK AO2 T00651111
KEIK 130039Z AUTO 21005KT 10SM CLR 09/M11 A3021 RMK AO2 T00901115
KEIK 130021Z AUTO 27009KT 10SM CLR 13/M13 A3020 RMK AO2 T01261130
KEIK 122354Z AUTO 00000KT 10SM CLR 10/M09 A3021 RMK AO2 T01011092
KEIK 122342Z AUTO 22004KT 10SM CLR 11/M08 A3021 RMK AO2 T01071083
KEIK 122318Z AUTO 00000KT 10SM CLR 14/M08 A3021 RMK AO2 T01441085
KEIK 122300Z AUTO 00000KT 10SM CLR 16/M09 A3021 RMK AO2 T01591089
KEIK 122241Z AUTO 34003KT 10SM CLR 17/M09 A3021 RMK AO2 T01741095
KEIK 122218Z AUTO 01004KT 10SM CLR 18/M10 A3022 RMK AO2 T01811096
KEIK 122200Z AUTO 01003KT 10SM CLR 18/M10 A3022 RMK AO2 T01821097
KEIK 122142Z AUTO 01003KT 10SM CLR 18/M10 A3022 RMK AO2 T01821097
KEIK 122118Z AUTO 00000KT 10SM CLR 18/M10 A3023 RMK AO2 T01751099
KEIK 122100Z AUTO 01003KT 10SM CLR 17/M10 A3024 RMK AO2 T01731099
KEIK 122042Z AUTO 01003KT 10SM CLR 17/M10 A3024 RMK AO2 T01701100
KEIK 122018Z AUTO 01007KT 10SM CLR 17/M10 A3026 RMK AO2 T01701100
KEIK 122000Z AUTO 36007KT 10SM CLR 17/M10 A3026 RMK AO2 T01741096
KEIK 121942Z AUTO 00000KT 10SM CLR 18/M12 A3027 RMK AO2 T01831120
KEIK 121918Z AUTO 00000KT 10SM CLR 18/M12 A3027 RMK AO2 T01841118
KEIK 121900Z AUTO 00000KT 10SM CLR 18/M12 A3029 RMK AO2 T01761118
KEIK 121842Z AUTO 00000KT 10SM CLR 17/M12 A3030 RMK AO2 T01701117
KEIK 121818Z AUTO 00000KT 10SM CLR 16/M12 A3032 RMK AO2 T01601120
KEIK 121800Z AUTO 00000KT 10SM CLR 15/M12 A3033 RMK AO2 T01501121
KEIK 121741Z AUTO 00000KT 10SM CLR 14/M12 A3034 RMK AO2 T01401121
KEIK 121718Z AUTO 19003KT 10SM CLR 12/M11 A3035 RMK AO2 T01241112
KEIK 121700Z AUTO 19004KT 10SM CLR 11/M11 A3036 RMK AO2 T01121111
KEIK 121642Z AUTO 18004KT 10SM CLR 09/M10 A3037 RMK AO2 T00941103
KEIK 121618Z AUTO 00000KT 10SM CLR 06/M09 A3037 RMK AO2 T00561093
KEIK 121600Z AUTO 00000KT 10SM CLR 03/M09 A3038 RMK AO2 T00331093
KEIK 121542Z AUTO 00000KT 10SM CLR 01/M08 A3038 RMK AO2 T00081082
KEIK 121518Z AUTO 21003KT 10SM CLR M01/M09 A3038 RMK AO2 T10141091
KEIK 121500Z AUTO 20003KT 10SM CLR M04/M09 A3039 RMK AO2 T10431092
KEIK 121442Z AUTO 21003KT 10SM CLR M05/M10 A3039 RMK AO2 T10511100
KEIK 121418Z AUTO 20003KT 10SM CLR M06/M10 A3040 RMK AO2 T10591100